Tiempo atmosférico en la estación meteorológica de Cazalla De La Sierra, Sevilla (550 m.)



Fecha
DESCASC
Temp. máxima en grados centígrados (hora)
DESCASC
Temp. mínima en grados centígrados (hora)
DESCASC
Temp. media en grados centígrados
DESCASC
Racha de viento máxima en m/sg (hora)
DESCASC
Velocidad máxima media en intervalos de 10 minutos(hora)
DESCASC
Precipitaciones diarias en mm
DESCASC
Precipitaciones de 00:00 a 06:00 en mm
DESCASC
Precipitaciones de 06:00 a 12:00 en mm
DESCASC
Precipitaciones de 12:00 a 18:00 en mm
DESCASC
Precipitaciones de 18:00 a 24:00 en mm
DESCASC
18-01-2019 13.4 (14:20) 0.2 (08:50) 6.8 7.22 (14:40) 4.17 (14:50) 0 0 0 0 0
17-01-2019 12.8 (15:10) 2.2 (00:00) 7.5 6.39 (14:40) 3.33 (13:10) 0 0 0 0 0
16-01-2019 13.2 (15:20) 0.1 (05:20) 6.6 6.11 (14:10) 2.78 (13:20) 0 0 0 0 0
15-01-2019 13.7 (15:10) 1.1 (00:00) 7.4 4.17 (13:30) 2.22 (13:40) 0 0 0 0 0
14-01-2019 18 (15:10) -0.2 (00:00) 8.9 3.33 (13:10) 2.5 (05:30) 0 0 0 0 0
13-01-2019 17.1 (16:50) -0.9 (08:40) 8.1 4.72 (12:20) 3.06 (12:20) 0 0 0 0 0
12-01-2019 15 (16:30) -2.2 (-00:0) 6.4 5 (11:20) 3.61 (11:20) 0 0 0 0 0
11-01-2019 10.6 (14:30) -1.5 (-00:0) 4.6 13.33 (09:20) 6.67 (08:50) 0 0 0 0 0
10-01-2019 14.9 (14:10) -0.2 (00:00) 7.3 5.83 (14:20) 3.33 (21:30) 0 0 0 0 0
09-01-2019 18.3 (15:00) -0.3 (00:00) 9 4.44 (16:40) 2.5 (11:40) 0 0 0 0 0
08-01-2019 18.2 (15:50) -1.1 (-00:0) 8.6 3.61 (04:20) 2.5 (09:20) 0 0 0 0 0
07-01-2019 17.8 (14:50) -0.7 (-00:0) 8.5 4.72 (15:30) 2.78 (15:30) 0 0 0 0 0
06-01-2019 19.5 (15:30) -1 (-00:0) 9.3 3.89 (15:10) 2.22 (23:20) 0 0 0 0 0
05-01-2019 17.5 (14:50) -0.2 (00:00) 8.6 4.72 (10:50) 2.78 (11:10) 0.1 0 0.1 0 0
04-01-2019 14.8 (16:10) 1.3 (00:00) 8.1 3.89 (12:10) 2.5 (00:20) 0.1 0 0.1 0 0
03-01-2019 12.9 (16:50) -0.7 (-00:0) 6.1 5.28 (14:00) 2.22 (14:40) 0 0 0 0 0
02-01-2019 16.8 (14:10) 0.3 (00:00) 8.5 5 (13:30) 3.33 (13:20) 0 0 0 0 0
01-01-2019 19.6 (13:40) 0.5 (08:30) 10.1 3.33 (07:10) 2.22 (05:40) 0 0 0 0 0
31-12-2018 17 (15:40) 0.4 (00:00) 8.7 4.72 (11:10) 2.78 (11:10) 0 0 0 0 0
30-12-2018 14.6 (15:30) 2.4 (00:00) 8.5 7.5 (16:40) 4.17 (16:30) 0 0 0 0 0
29-12-2018 12.7 (15:10) 1.2 (00:00) 6.9 7.5 (17:00) 4.44 (11:40) 0 0 0 0 0
28-12-2018 10.3 (14:00) 3.4 (00:40) 6.9 4.44 (05:50) 2.5 (11:00) 0 0 0 0 0
27-12-2018 16.3 (15:30) 1.7 (00:00) 9 3.61 (14:20) 2.5 (14:50) 0.1 0 0.1 0 0
26-12-2018 14.3 (17:20) 2.7 (00:00) 8.5 4.72 (11:30) 2.78 (07:40) 0 0 0 0 0
25-12-2018 19.1 (15:30) 4.1 (00:00) 11.6 3.61 (04:20) 2.22 (04:20) 0 0 0 0 0
23-12-2018 19.4 (15:10) 2.2 (00:00) 10.8 3.89 (12:10) 2.22 (03:20) 0.1 0 0.1 0 0
22-12-2018 18.2 (14:50) 4.5 (04:10) 11.4 4.44 (13:30) 2.78 (13:30) 0 0 0 0 0
21-12-2018 -- (--) -- (--) -- -- (--) 18.06 (02:10) 0 0 0 0 0

Gráficas

Temp. máximas Temp. mínimas Temp. medias Precipitaciones Rachas de viento máximas Velocidades máximas media en intervalos de 10 minutos

Datos horarios

Fecha y hora oficial Temperatura (ºC) Velocidad del viento (km/h) Dirección del viento Racha (km/h) Dirección de racha Precipitación (mm) Presión (hPa) Tendencia (hPa) Humedad (%)
2019-01-19 23:00:00 8.7 8 Sur 22 Sur 2.8 947.7 -2.4 94
2019-01-19 22:00:00 8.2 10 Oeste 25 Sur 6.4 949.4 -1 95
2019-01-19 21:00:00 8.2 9 Sur 25 Sur 3.8 949.3 -1.4 95
2019-01-19 20:00:00 7.6 6 Sudoeste 20 Sudoeste 0.3 950.1 -1.2 95
2019-01-19 19:00:00 7.2 3 Sudoeste 14 Sudoeste 0.2 950.4 -1.5 95
2019-01-19 18:00:00 7 6 Sudoeste 15 Sudoeste 0 950.7 -1.6 95
2019-01-19 17:00:00 7 5 Sudoeste 18 Oeste 1.1 951.3 -1.5 95
2019-01-19 16:00:00 7.2 8 Sudoeste 14 Sudoeste 0.2 951.9 -1.8 94
2019-01-19 15:00:00 7.7 4 Oeste 18 Oeste 0.7 952.3 -1.9 91
2019-01-19 14:00:00 8.2 5 Oeste 12 Oeste 1 952.8 -1.5 89
2019-01-19 13:00:00 8.4 5 Oeste 10 Oeste 0 953.7 0.1 80
2019-01-19 12:00:00 8.7 2 Oeste 8 Oeste 0 954.2 1.1 76
2019-01-19 11:00:00 7.4 3 Oeste 7 Este 0 954.3 1.4 79
2019-01-19 10:00:00 6 2 Sudeste 4 Este 0 953.6 1 88
2019-01-19 09:00:00 5 0 Calma 6 Sudeste 0.1 953.1 0.2 93
2019-01-19 08:00:00 5.4 3 Sudeste 11 Este 0 952.9 -0.1 94
2019-01-19 07:00:00 5.5 6 Este 12 Este 0.1 952.6 -1.1 94
2019-01-19 06:00:00 5.7 2 Sudeste 7 Este 0 952.9 -1.1 93
2019-01-19 05:00:00 5.5 3 Este 4 Sudeste 0.1 953 -0.9 93
2019-01-19 04:00:00 5.5 0 Calma 4 Oeste 0.4 953.7 -0.6 91
2019-01-19 03:00:00 5.5 2 Oeste 3 Oeste 0.2 954 -0.4 90
2019-01-19 02:00:00 5.9 0 Calma 4 Sudoeste 0 953.9 -0.6 83
2019-01-19 01:00:00 6.6 4 Oeste 9 Oeste 0 954.3 0 74
2019-01-19 00:00:00 6.7 8 Oeste 12 Oeste 0 954.4 0.2 69
2019-01-18 23:00:00 7.3 4 Oeste 13 Noroeste 0 954.5 0.5 62
2019-01-18 22:00:00 7.6 5 Oeste 18 Noroeste 0 954.3 0.5 59
2019-01-18 21:00:00 7.8 0 Calma 5 Noroeste 0 954.2 0.3 58
2019-01-18 20:00:00 8.5 3 Oeste 10 Noroeste 0 954 0.1 52
2019-01-18 19:00:00 9 7 Noroeste 17 Noroeste 0 953.8 -0.2 47
2019-01-18 18:00:00 10.2 12 Noroeste 22 Noroeste 0 953.9 -0.6 42
2019-01-18 17:00:00 11.2 10 Noroeste 20 Noroeste 0 953.9 -1 42
2019-01-18 16:00:00 11.4 12 Noroeste 24 Noroeste 0 954 -1.4 42
2019-01-18 15:00:00 12.8 11 Oeste 26 Oeste 0 954.5 -1.6 40
2019-01-18 14:00:00 12.1 10 Oeste 20 Oeste 0 954.9 -0.8 43
2019-01-18 13:00:00 11.6 3 Este 11 Este 0 955.4 0.1 47
2019-01-18 12:00:00 9.7 7 Nordeste 17 Nordeste 0 956.1 0.9 56
2019-01-18 11:00:00 7.8 7 Norte 16 Norte 0 955.7 1 68
2019-01-18 10:00:00 3.2 3 Este 5 Sudeste 0 955.3 1.2 90
2019-01-18 09:00:00 0.4 0 Calma 5 Oeste 0 955.2 1.3 91
2019-01-18 08:00:00 2.9 3 Sudeste 10 Nordeste 0 954.7 0.5 84
2019-01-18 07:00:00 0.9 2 Este 7 Sudeste 0 954.1 -0.5 91
2019-01-18 06:00:00 1.9 4 Sudeste 8 Sudeste 0 953.9 -0.7 90
2019-01-18 05:00:00 1.8 3 Sudeste 9 Este 0 954.2 -0.4 90
2019-01-18 04:00:00 3.7 4 Este 10 Norte 0 954.6 -0.3 85
2019-01-18 03:00:00 3.5 4 Nordeste 11 Nordeste 0 954.6 -0.5 89
2019-01-18 02:00:00 4.3 0 Calma 13 Nordeste 0 954.6 0 87
2019-01-18 01:00:00 3 2 Este 9 Norte 0 954.9 0.6 89
2019-01-18 00:00:00 5 3 Nordeste 11 Nordeste 0 955.1 1.1 84
2019-01-17 23:00:00 3.1 4 Sudeste 7 Este 0 954.6 1 88
2019-01-17 22:00:00 4.7 4 Este 10 Nordeste 0 954.3 1.1 76
2019-01-17 21:00:00 7.5 5 Nordeste 13 Nordeste 0 954 1.3 67
2019-01-17 20:00:00 9.1 4 Nordeste 15 Nordeste 0 953.6 1.3 61
2019-01-17 19:00:00 9.3 5 Nordeste 14 Nordeste 0 953.2 1.2 58
2019-01-17 18:00:00 9.9 4 Nordeste 16 Este 0 952.7 0.4 57
2019-01-17 17:00:00 11.2 10 Este 21 Este 0 952.3 -0.8 54
2019-01-17 16:00:00 10.8 3 Norte 19 Noroeste 0 952 -1.7 57
2019-01-17 15:00:00 11.7 11 Noroeste 23 Noroeste 0 952.3 -2.2 60
2019-01-17 14:00:00 9.8 10 Noroeste 19 Norte 0 953.1 -1 72
2019-01-17 13:00:00 10.7 9 Noroeste 20 Norte 0 953.7 0.1 73
2019-01-17 12:00:00 8.6 10 Noroeste 14 Noroeste 0 954.5 1.5 77
2019-01-17 11:00:00 7.9 5 Oeste 9 Oeste 0 954.1 1.2 81
2019-01-17 10:00:00 6.4 3 Oeste 7 Este 0 953.6 1 86
2019-01-17 09:00:00 4.2 4 Sudeste 8 Este 0 953 0.6 90
2019-01-17 08:00:00 3.2 4 Sudeste 6 Sudeste 0 952.9 0.3 91
2019-01-17 07:00:00 4 0 Calma 8 Oeste 0 952.6 -0.3 89
2019-01-17 06:00:00 5 3 Este 7 Este 0 952.4 -0.6 86
2019-01-17 05:00:00 4.5 4 Este 5 Sudeste 0 952.6 -0.9 90
2019-01-17 04:00:00 4.2 4 Este 8 Este 0 952.9 -0.9 90
2019-01-17 03:00:00 2.9 5 Este 8 Este 0 953 -0.9 91
2019-01-17 02:00:00 2.9 3 Sudeste 6 Sudeste 0 953.5 -0.5 90
2019-01-17 01:00:00 2.5 5 Sudeste 6 Sudeste 0 953.8 -0.1 90
2019-01-17 00:00:00 2.9 5 Este 6 Este 0 953.9 0.1 88
2019-01-16 23:00:00 5.6 4 Este 7 Este 0 954 0.2 80
2019-01-16 22:00:00 7 4 Este 7 Sudeste 0 953.9 0.6 80
2019-01-16 21:00:00 7 2 Sudeste 6 Este 0 953.8 0.8 86
2019-01-16 20:00:00 6.4 4 Este 8 Sudeste 0 953.8 0.8 88
2019-01-16 19:00:00 6.1 3 Este 6 Oeste 0 953.3 0.2 83
2019-01-16 18:00:00 10.7 2 Oeste 12 Sudoeste 0 953 -0.6 59
2019-01-16 17:00:00 11.2 7 Oeste 17 Oeste 0 953 -1.3 54
2019-01-16 16:00:00 12.5 7 Oeste 19 Oeste 0 953.1 -1.9 53
2019-01-16 15:00:00 11.6 6 Noroeste 22 Sudoeste 0 953.6 -1.8 59
2019-01-16 14:00:00 11 8 Sudoeste 18 Oeste 0 954.3 -1.3 63
2019-01-16 13:00:00 9.3 8 Oeste 15 Oeste 0 955 -0.4 76